createdAt,value
2024-01-19T00:00:06.682Z,53.11
2024-01-19T00:02:34.041Z,52.35
2024-01-19T00:05:02.049Z,51.82
2024-01-19T00:07:29.509Z,51.14
2024-01-19T00:09:57.212Z,52.12
2024-01-19T00:12:24.660Z,52.10
2024-01-19T00:14:52.120Z,51.90
2024-01-19T00:17:19.585Z,51.44
2024-01-19T00:19:47.022Z,52.11
2024-01-19T00:22:14.461Z,51.93
2024-01-19T00:24:41.894Z,52.12
2024-01-19T00:27:09.277Z,51.61
2024-01-19T00:29:36.717Z,51.74
2024-01-19T00:32:04.284Z,51.29
2024-01-19T00:34:31.731Z,52.61
2024-01-19T00:36:59.077Z,51.58
2024-01-19T00:39:26.512Z,52.31
2024-01-19T00:41:54.049Z,52.99
2024-01-19T00:44:22.858Z,52.43
2024-01-19T00:46:51.220Z,52.75
2024-01-19T00:49:19.411Z,52.11
2024-01-19T00:51:46.957Z,51.71
2024-01-19T00:54:15.642Z,51.43
2024-01-19T00:56:43.134Z,52.22
2024-01-19T00:59:10.734Z,51.95
2024-01-19T01:01:38.202Z,52.12
2024-01-19T01:04:07.192Z,52.04
2024-01-19T01:06:34.713Z,52.62
2024-01-19T01:09:02.314Z,52.11
2024-01-19T01:11:29.973Z,52.84
2024-01-19T01:13:57.581Z,52.27
2024-01-19T01:16:25.157Z,52.32
2024-01-19T01:18:52.584Z,52.15
2024-01-19T01:21:19.971Z,52.26
2024-01-19T01:23:48.595Z,51.96
2024-01-19T01:26:16.100Z,52.16
2024-01-19T01:28:43.511Z,51.93
2024-01-19T01:31:11.370Z,52.19
2024-01-19T01:33:38.971Z,51.53
2024-01-19T01:36:06.980Z,52.25
2024-01-19T01:38:34.675Z,51.92
2024-01-19T01:41:02.191Z,52.07
2024-01-19T01:43:29.892Z,51.01
2024-01-19T01:45:57.351Z,52.04
2024-01-19T01:48:27.739Z,51.55
2024-01-19T01:50:57.399Z,51.95
2024-01-19T01:53:25.813Z,51.32
2024-01-19T01:55:54.110Z,51.48
2024-01-19T01:58:22.650Z,51.31
2024-01-19T02:00:51.412Z,51.64
2024-01-19T02:03:19.101Z,51.74
2024-01-19T02:05:46.975Z,51.48
2024-01-19T02:08:14.797Z,51.53
2024-01-19T02:10:42.433Z,51.58
2024-01-19T02:13:09.991Z,51.19
2024-01-19T02:15:39.202Z,50.87
2024-01-19T02:18:07.282Z,51.21
2024-01-19T02:20:34.916Z,51.61
2024-01-19T02:23:06.235Z,52.58
2024-01-19T02:25:33.780Z,51.80
2024-01-19T02:28:01.677Z,51.01
2024-01-19T02:30:29.581Z,52.46
2024-01-19T02:32:57.472Z,52.20
2024-01-19T02:35:25.204Z,52.10
2024-01-19T02:37:53.206Z,52.85
2024-01-19T02:40:20.614Z,52.77
2024-01-19T02:42:48.021Z,52.14
2024-01-19T02:45:15.813Z,51.25
2024-01-19T02:47:43.273Z,52.57
2024-01-19T02:50:11.245Z,52.40
2024-01-19T02:52:38.826Z,52.36
2024-01-19T02:55:07.497Z,51.38
2024-01-19T02:57:34.951Z,52.29
2024-01-19T03:00:02.420Z,52.02
2024-01-19T03:02:29.860Z,51.60
2024-01-19T03:04:57.427Z,52.27
2024-01-19T03:07:24.806Z,51.61
2024-01-19T03:09:52.156Z,51.74
2024-01-19T03:12:20.004Z,52.19
2024-01-19T03:14:47.440Z,52.61
2024-01-19T03:17:15.390Z,51.81
2024-01-19T03:19:42.782Z,51.69
2024-01-19T03:22:10.328Z,51.97
2024-01-19T03:24:37.739Z,51.96
2024-01-19T03:27:05.461Z,52.59
2024-01-19T03:29:32.842Z,52.04
2024-01-19T03:32:00.227Z,52.51
2024-01-19T03:34:27.652Z,51.66
2024-01-19T03:36:55.111Z,52.51
2024-01-19T03:39:24.676Z,52.68
2024-01-19T03:41:54.687Z,52.54
2024-01-19T03:44:22.103Z,52.51
2024-01-19T03:46:49.446Z,51.29
2024-01-19T03:49:16.908Z,52.10
2024-01-19T03:52:08.036Z,51.43
2024-01-19T03:54:38.021Z,51.71
2024-01-19T03:57:09.279Z,53.28
2024-01-19T03:59:36.611Z,52.58
2024-01-19T04:02:06.232Z,51.80
2024-01-19T04:04:34.229Z,52.54
2024-01-19T04:07:01.884Z,51.58
2024-01-19T04:09:29.384Z,52.54
2024-01-19T04:11:57.404Z,51.72
2024-01-19T04:14:25.087Z,51.96
2024-01-19T04:16:52.511Z,52.25
2024-01-19T04:19:20.036Z,51.99
2024-01-19T04:21:47.524Z,51.84
2024-01-19T04:24:15.415Z,51.30
2024-01-19T04:26:42.844Z,53.43
2024-01-19T04:29:11.354Z,51.28
2024-01-19T04:31:38.877Z,52.98
2024-01-19T04:34:06.493Z,52.59
2024-01-19T04:36:33.956Z,51.91
2024-01-19T04:39:01.438Z,51.57
2024-01-19T04:41:28.894Z,51.38
2024-01-19T04:43:56.700Z,52.37
2024-01-19T04:46:24.161Z,51.25
2024-01-19T04:48:51.589Z,50.46
2024-01-19T04:51:18.956Z,51.53
2024-01-19T04:53:46.403Z,51.07
2024-01-19T04:56:13.894Z,51.75
2024-01-19T04:58:41.873Z,52.19
2024-01-19T05:01:09.906Z,51.65
2024-01-19T05:03:37.628Z,51.27
2024-01-19T05:06:05.488Z,50.79
2024-01-19T05:08:32.973Z,51.47
2024-01-19T05:11:00.323Z,51.39
2024-01-19T05:13:27.745Z,51.09
2024-01-19T05:15:55.117Z,51.90
2024-01-19T05:18:22.833Z,52.54
2024-01-19T05:20:50.998Z,51.96
2024-01-19T05:23:18.511Z,51.90
2024-01-19T05:25:46.154Z,51.19
2024-01-19T05:28:13.510Z,51.30
2024-01-19T05:30:40.917Z,51.31
2024-01-19T05:33:08.378Z,52.06
2024-01-19T05:35:36.017Z,52.08
2024-01-19T05:38:04.468Z,51.75
2024-01-19T05:40:31.850Z,52.81
2024-01-19T05:42:59.243Z,52.52
2024-01-19T05:45:26.828Z,52.24
2024-01-19T05:47:54.926Z,52.71
2024-01-19T05:50:22.385Z,52.79
2024-01-19T05:52:49.863Z,52.01
2024-01-19T05:55:17.315Z,51.80
2024-01-19T05:57:44.720Z,52.64
2024-01-19T06:00:15.974Z,51.08
2024-01-19T06:02:43.502Z,51.56
2024-01-19T06:05:10.960Z,51.76
2024-01-19T06:07:38.397Z,50.40
2024-01-19T06:10:07.776Z,51.68
2024-01-19T06:12:35.202Z,51.95
2024-01-19T06:15:02.742Z,52.16
2024-01-19T06:17:30.324Z,52.16
2024-01-19T06:19:57.870Z,52.56
2024-01-19T06:22:25.633Z,52.05
2024-01-19T06:24:53.089Z,52.77
2024-01-19T06:27:23.718Z,52.27
2024-01-19T06:29:52.643Z,51.46
2024-01-19T06:32:20.723Z,51.15
2024-01-19T06:34:48.282Z,51.71
2024-01-19T06:37:15.825Z,52.66
2024-01-19T06:39:47.315Z,53.06
2024-01-19T06:42:15.637Z,52.60
2024-01-19T06:44:44.786Z,52.01
2024-01-19T06:47:12.650Z,52.61
2024-01-19T06:49:40.735Z,51.29
2024-01-19T06:52:08.554Z,51.33
2024-01-19T06:54:35.908Z,51.70
2024-01-19T06:57:03.669Z,51.61
2024-01-19T06:59:31.096Z,51.73
2024-01-19T07:01:58.524Z,52.15
2024-01-19T07:04:25.880Z,51.67
2024-01-19T07:06:53.340Z,52.21
2024-01-19T07:09:21.431Z,51.39
2024-01-19T07:11:49.153Z,52.90
2024-01-19T07:14:16.612Z,51.67
2024-01-19T07:16:45.119Z,51.42
2024-01-19T07:19:13.012Z,51.56
2024-01-19T07:21:41.931Z,52.40
2024-01-19T07:24:13.503Z,51.62
2024-01-19T07:26:42.707Z,51.71
2024-01-19T07:29:10.771Z,52.02
2024-01-19T07:31:38.953Z,51.52
2024-01-19T07:34:06.723Z,51.16
2024-01-19T07:36:34.364Z,51.69
2024-01-19T07:39:01.924Z,52.06
2024-01-19T07:41:29.360Z,52.27
2024-01-19T07:43:57.067Z,53.22
2024-01-19T07:46:24.582Z,53.22
2024-01-19T07:48:52.252Z,51.64
2024-01-19T07:51:21.382Z,51.75
2024-01-19T07:53:48.963Z,51.90
2024-01-19T07:56:16.392Z,51.58
2024-01-19T07:58:46.835Z,52.94
2024-01-19T08:01:14.391Z,52.48
2024-01-19T08:03:42.378Z,51.37
2024-01-19T08:06:09.999Z,52.20
2024-01-19T08:08:37.518Z,51.68
2024-01-19T08:11:05.484Z,51.19
2024-01-19T08:13:32.899Z,52.08
2024-01-19T08:16:00.400Z,52.30
2024-01-19T08:18:28.037Z,51.92
2024-01-19T08:20:55.855Z,52.53
2024-01-19T08:23:23.344Z,52.67
2024-01-19T08:25:50.829Z,52.73
2024-01-19T08:28:18.238Z,51.71
2024-01-19T08:30:45.766Z,52.07
2024-01-19T08:33:14.524Z,52.07
2024-01-19T08:35:42.058Z,51.92
2024-01-19T08:38:10.541Z,52.00
2024-01-19T08:40:40.248Z,52.37
2024-01-19T08:43:07.634Z,51.64
2024-01-19T08:45:35.210Z,50.96
2024-01-19T08:48:04.304Z,51.17
2024-01-19T08:50:31.834Z,50.71
2024-01-19T08:53:00.804Z,52.82
2024-01-19T08:55:28.231Z,51.66
2024-01-19T08:57:55.617Z,51.03
2024-01-19T09:00:23.697Z,51.90
2024-01-19T09:02:59.839Z,52.00
2024-01-19T09:05:31.835Z,50.80
2024-01-19T09:07:59.604Z,51.65
2024-01-19T09:10:27.258Z,51.05
2024-01-19T09:12:55.099Z,52.45
2024-01-19T09:15:23.014Z,53.99
2024-01-19T09:17:50.508Z,51.27
2024-01-19T09:20:18.058Z,52.69
2024-01-19T09:22:45.449Z,51.70
2024-01-19T09:25:16.344Z,51.00
2024-01-19T09:27:43.872Z,50.12
2024-01-19T09:30:11.856Z,51.54
2024-01-19T09:32:42.529Z,54.89
2024-01-19T09:35:10.443Z,53.15
2024-01-19T09:37:37.918Z,52.11
2024-01-19T09:40:06.034Z,53.38
2024-01-19T09:42:36.009Z,53.53
2024-01-19T09:45:06.807Z,52.04
2024-01-19T09:48:25.070Z,52.93
2024-01-19T09:50:54.804Z,51.97
2024-01-19T09:53:36.427Z,51.32
2024-01-19T09:56:04.116Z,52.42
2024-01-19T09:58:32.365Z,50.83
2024-01-19T10:01:01.652Z,50.51
2024-01-19T10:03:31.024Z,50.06
2024-01-19T10:05:58.821Z,53.02
2024-01-19T10:08:27.157Z,50.64
2024-01-19T10:10:56.779Z,50.95
2024-01-19T10:13:24.136Z,49.68
2024-01-19T10:15:51.644Z,49.53
2024-01-19T10:18:20.832Z,51.00
2024-01-19T10:20:53.403Z,51.55
2024-01-19T10:23:24.938Z,51.13
2024-01-19T10:25:53.020Z,50.49
2024-01-19T10:28:36.739Z,51.75
2024-01-19T10:31:20.194Z,49.81
2024-01-19T10:33:59.597Z,50.81
2024-01-19T10:36:28.323Z,48.92
2024-01-19T10:39:15.942Z,48.11
2024-01-19T10:41:43.558Z,49.35
2024-01-19T10:44:18.477Z,50.84
2024-01-19T10:46:46.512Z,51.39
2024-01-19T10:49:20.515Z,51.21
2024-01-19T10:51:49.080Z,50.74
2024-01-19T10:54:26.264Z,51.15
2024-01-19T10:57:10.945Z,49.50
2024-01-19T10:59:38.566Z,49.39
2024-01-19T11:02:06.397Z,50.23
2024-01-19T11:04:40.965Z,50.32
2024-01-19T11:07:09.143Z,49.01
2024-01-19T11:09:36.818Z,51.16
2024-01-19T11:12:06.157Z,48.35
2024-01-19T11:14:36.827Z,47.51
2024-01-19T11:17:04.531Z,48.36
2024-01-19T11:19:32.881Z,49.08
2024-01-19T11:22:02.351Z,47.01
2024-01-19T11:24:38.067Z,46.49
2024-01-19T11:27:25.074Z,48.32
2024-01-19T11:29:56.646Z,46.35
2024-01-19T11:32:24.183Z,47.81
2024-01-19T11:34:52.323Z,47.74
2024-01-19T11:37:48.607Z,48.82
2024-01-19T11:40:25.939Z,47.01
2024-01-19T11:42:54.011Z,47.82
2024-01-19T11:45:30.022Z,48.07
2024-01-19T11:47:58.374Z,47.46
2024-01-19T11:50:48.669Z,48.13
2024-01-19T11:53:16.600Z,47.45
2024-01-19T11:55:47.512Z,45.90
2024-01-19T11:58:41.131Z,48.55
2024-01-19T12:01:12.067Z,49.02
2024-01-19T12:03:41.731Z,48.23
2024-01-19T12:06:10.562Z,46.67
2024-01-19T12:08:38.231Z,47.40
2024-01-19T12:11:12.554Z,46.99
2024-01-19T12:13:48.992Z,47.80
2024-01-19T12:16:24.362Z,49.15
2024-01-19T12:18:56.085Z,46.76
2024-01-19T12:21:24.548Z,46.18
2024-01-19T12:23:58.307Z,46.12
2024-01-19T12:26:27.654Z,45.98
2024-01-19T12:28:57.203Z,47.27
2024-01-19T12:31:38.673Z,45.50
2024-01-19T12:34:17.293Z,45.17
2024-01-19T12:36:44.858Z,45.58
2024-01-19T12:39:16.320Z,46.30
2024-01-19T12:41:44.718Z,47.81
2024-01-19T12:44:13.600Z,46.17
2024-01-19T12:46:50.833Z,46.60
2024-01-19T12:49:18.349Z,46.66
2024-01-19T12:51:46.734Z,45.81
2024-01-19T12:54:16.644Z,46.69
2024-01-19T12:56:44.080Z,46.73
2024-01-19T12:59:20.688Z,47.69
2024-01-19T13:01:55.672Z,48.30
2024-01-19T13:04:24.499Z,46.00
2024-01-19T13:06:54.517Z,45.05
2024-01-19T13:09:23.332Z,45.56
2024-01-19T13:11:50.876Z,44.76
2024-01-19T13:14:25.970Z,46.53
2024-01-19T13:16:57.490Z,46.51
2024-01-19T13:19:25.583Z,46.32
2024-01-19T13:21:56.104Z,45.81
2024-01-19T13:24:29.798Z,44.87
2024-01-19T13:27:04.335Z,46.30
2024-01-19T13:29:33.356Z,45.47
2024-01-19T13:32:01.560Z,46.42
2024-01-19T13:34:32.136Z,46.78
2024-01-19T13:37:00.611Z,49.78
2024-01-19T13:39:29.725Z,46.99
2024-01-19T13:41:59.303Z,48.02
2024-01-19T13:44:27.151Z,47.79
2024-01-19T13:46:54.710Z,47.10
2024-01-19T13:49:22.275Z,47.68
2024-01-19T13:51:49.921Z,47.48
2024-01-19T13:54:17.280Z,48.30
2024-01-19T13:56:44.606Z,47.96
2024-01-19T13:59:12.070Z,46.93
2024-01-19T14:01:39.708Z,47.75
2024-01-19T14:04:11.606Z,47.58
2024-01-19T14:06:39.049Z,46.76
2024-01-19T14:09:06.593Z,48.02
2024-01-19T14:11:34.763Z,46.70
2024-01-19T14:14:03.349Z,48.45
2024-01-19T14:16:31.032Z,48.10
2024-01-19T14:18:58.955Z,47.63
2024-01-19T14:21:26.511Z,48.63
2024-01-19T14:23:53.946Z,50.55
2024-01-19T14:26:21.880Z,50.12
2024-01-19T14:28:49.367Z,49.77
2024-01-19T14:31:17.529Z,50.02
2024-01-19T14:33:45.613Z,49.63
2024-01-19T14:36:13.214Z,49.35
2024-01-19T14:38:40.625Z,48.96
2024-01-19T14:41:08.226Z,48.43
2024-01-19T14:43:35.890Z,49.80
2024-01-19T14:46:03.930Z,48.96
2024-01-19T14:48:31.438Z,49.90
2024-01-19T14:50:59.060Z,50.59
2024-01-19T14:53:27.918Z,51.12
2024-01-19T14:55:55.873Z,50.75
2024-01-19T14:58:23.712Z,48.74
2024-01-19T15:00:51.175Z,49.52
2024-01-19T15:03:18.622Z,50.35
2024-01-19T15:05:45.986Z,49.63
2024-01-19T15:08:13.470Z,50.95
2024-01-19T15:10:40.956Z,50.82
2024-01-19T15:13:09.889Z,49.82
2024-01-19T15:15:38.509Z,49.86
2024-01-19T15:18:07.465Z,52.24
2024-01-19T15:20:34.838Z,50.95
2024-01-19T15:23:04.025Z,50.32
2024-01-19T15:25:31.455Z,51.00
2024-01-19T15:27:58.958Z,49.62
2024-01-19T15:30:33.388Z,50.57
2024-01-19T15:33:08.534Z,50.29
2024-01-19T15:35:35.930Z,50.61
2024-01-19T15:38:03.370Z,51.21
2024-01-19T15:40:30.696Z,49.57
2024-01-19T15:42:58.069Z,50.10
2024-01-19T15:45:27.724Z,50.79
2024-01-19T15:47:56.933Z,50.74
2024-01-19T15:50:25.143Z,50.04
2024-01-19T15:52:56.004Z,51.39
2024-01-19T15:55:24.757Z,50.85
2024-01-19T15:57:52.168Z,51.10
2024-01-19T16:00:20.020Z,51.16
2024-01-19T16:02:47.378Z,51.64
2024-01-19T16:05:16.330Z,51.56
2024-01-19T16:07:44.003Z,52.00
2024-01-19T16:10:11.635Z,51.42
2024-01-19T16:12:39.122Z,51.53
2024-01-19T16:15:07.159Z,51.41
2024-01-19T16:17:39.174Z,51.01
2024-01-19T16:20:09.877Z,50.55
2024-01-19T16:22:37.410Z,51.12
2024-01-19T16:25:07.914Z,51.83
2024-01-19T16:27:36.450Z,51.72
2024-01-19T16:30:05.032Z,50.72
2024-01-19T16:32:32.481Z,52.87
2024-01-19T16:35:00.079Z,51.97
2024-01-19T16:37:27.678Z,52.21
2024-01-19T16:39:55.073Z,51.26
2024-01-19T16:42:22.385Z,50.83
2024-01-19T16:44:49.737Z,50.58
2024-01-19T16:47:17.268Z,50.84
2024-01-19T16:49:44.699Z,51.83
2024-01-19T16:52:13.380Z,51.63
2024-01-19T16:54:44.679Z,52.71
2024-01-19T16:57:12.663Z,53.73
2024-01-19T16:59:40.170Z,52.57
2024-01-19T17:02:07.627Z,52.82
2024-01-19T17:04:38.282Z,52.34
2024-01-19T17:07:05.818Z,53.10
2024-01-19T17:09:35.854Z,51.69
2024-01-19T17:12:03.495Z,52.42
2024-01-19T17:14:34.562Z,52.76
2024-01-19T17:17:01.920Z,52.17
2024-01-19T17:19:29.908Z,52.25
2024-01-19T17:21:57.369Z,53.14
2024-01-19T17:24:25.411Z,53.29
2024-01-19T17:26:53.173Z,52.71
2024-01-19T17:29:21.025Z,52.79
2024-01-19T17:31:48.759Z,52.03
2024-01-19T17:34:16.205Z,52.95
2024-01-19T17:36:43.728Z,52.85
2024-01-19T17:39:11.281Z,52.47
2024-01-19T17:41:42.990Z,53.13
2024-01-19T17:44:11.015Z,52.94
2024-01-19T17:46:38.638Z,52.56
2024-01-19T17:49:06.175Z,53.12
2024-01-19T17:51:33.737Z,52.07
2024-01-19T17:54:01.215Z,52.86
2024-01-19T17:56:28.736Z,52.65
2024-01-19T17:58:56.231Z,53.80
2024-01-19T18:01:24.060Z,53.85
2024-01-19T18:03:51.663Z,53.31
2024-01-19T18:06:21.681Z,51.82
2024-01-19T18:08:51.174Z,52.13
2024-01-19T18:11:18.784Z,52.64
2024-01-19T18:13:46.325Z,52.05
2024-01-19T18:16:13.796Z,52.54
2024-01-19T18:18:41.415Z,53.40
2024-01-19T18:21:09.387Z,52.94
2024-01-19T18:23:36.744Z,52.89
2024-01-19T18:26:04.812Z,52.94
2024-01-19T18:28:32.426Z,53.08
2024-01-19T18:31:00.361Z,52.87
2024-01-19T18:33:27.991Z,52.87
2024-01-19T18:35:55.606Z,52.63
2024-01-19T18:38:23.015Z,52.23
2024-01-19T18:40:50.428Z,53.05
2024-01-19T18:43:17.846Z,52.59
2024-01-19T18:45:45.226Z,51.80
2024-01-19T18:48:12.766Z,52.49
2024-01-19T18:50:40.284Z,51.97
2024-01-19T18:53:09.289Z,53.90
2024-01-19T18:55:37.070Z,52.95
2024-01-19T18:58:07.503Z,52.52
2024-01-19T19:00:37.140Z,52.29
2024-01-19T19:03:06.219Z,52.77
2024-01-19T19:05:36.471Z,53.70
2024-01-19T19:08:07.753Z,52.19
2024-01-19T19:10:37.751Z,52.00
2024-01-19T19:13:07.319Z,51.67
2024-01-19T19:15:37.517Z,52.95
2024-01-19T19:18:05.819Z,52.89
2024-01-19T19:20:33.616Z,52.43
2024-01-19T19:23:02.547Z,53.26
2024-01-19T19:25:30.028Z,52.72
2024-01-19T19:27:57.897Z,51.95
2024-01-19T19:30:26.588Z,52.38
2024-01-19T19:32:54.694Z,52.19
2024-01-19T19:35:22.135Z,52.29
2024-01-19T19:37:49.640Z,53.67
2024-01-19T19:40:17.161Z,54.37
2024-01-19T19:42:44.583Z,52.64
2024-01-19T19:45:14.620Z,52.49
2024-01-19T19:47:42.490Z,52.45
2024-01-19T19:50:11.352Z,52.52
2024-01-19T19:52:39.884Z,52.66
2024-01-19T19:55:07.881Z,53.15
2024-01-19T19:57:35.264Z,53.31
2024-01-19T20:00:02.834Z,53.14
2024-01-19T20:02:30.192Z,52.61
2024-01-19T20:04:57.559Z,52.51
2024-01-19T20:07:24.958Z,52.74
2024-01-19T20:09:52.635Z,53.35
2024-01-19T20:12:20.131Z,52.34
2024-01-19T20:14:47.974Z,52.85
2024-01-19T20:17:15.685Z,53.55
2024-01-19T20:19:48.038Z,53.32
2024-01-19T20:22:15.529Z,53.33
2024-01-19T20:24:43.253Z,52.78
2024-01-19T20:27:12.674Z,52.74
2024-01-19T20:29:42.905Z,53.86
2024-01-19T20:32:10.959Z,52.86
2024-01-19T20:34:40.508Z,53.45
2024-01-19T20:37:08.480Z,52.13
2024-01-19T20:39:36.139Z,54.82
2024-01-19T20:42:04.275Z,54.01
2024-01-19T20:44:31.669Z,53.26
2024-01-19T20:46:59.171Z,52.53
2024-01-19T20:49:27.022Z,52.61
2024-01-19T20:51:54.434Z,53.17
2024-01-19T20:54:25.796Z,53.45
2024-01-19T20:56:54.126Z,53.02
2024-01-19T20:59:24.097Z,53.54
2024-01-19T21:01:51.666Z,53.10
2024-01-19T21:04:19.311Z,53.24
2024-01-19T21:06:47.005Z,53.03
2024-01-19T21:09:14.573Z,52.55
2024-01-19T21:11:42.404Z,52.86
2024-01-19T21:14:10.855Z,52.17
2024-01-19T21:16:38.592Z,52.75
2024-01-19T21:19:08.931Z,53.99
2024-01-19T21:21:37.777Z,52.64
2024-01-19T21:24:05.845Z,52.17
2024-01-19T21:26:34.613Z,53.41
2024-01-19T21:29:03.414Z,52.12
2024-01-19T21:31:30.915Z,52.36
2024-01-19T21:33:59.357Z,52.42
2024-01-19T21:36:26.868Z,52.39
2024-01-19T21:38:54.431Z,53.70
2024-01-19T21:41:22.387Z,53.09
2024-01-19T21:43:49.849Z,52.30
2024-01-19T21:46:17.411Z,51.89
2024-01-19T21:48:44.926Z,51.80
2024-01-19T21:51:12.454Z,52.64
2024-01-19T21:53:43.339Z,52.42
2024-01-19T21:56:14.452Z,52.37
2024-01-19T21:58:41.969Z,51.73
2024-01-19T22:01:17.377Z,52.17
2024-01-19T22:03:47.230Z,53.20
2024-01-19T22:06:14.801Z,51.58
2024-01-19T22:08:42.468Z,52.62
2024-01-19T22:11:10.339Z,51.44
2024-01-19T22:13:37.851Z,51.15
2024-01-19T22:16:06.173Z,52.27
2024-01-19T22:18:38.427Z,52.19
2024-01-19T22:21:07.021Z,53.58
2024-01-19T22:23:40.020Z,52.69
2024-01-19T22:26:10.507Z,52.49
2024-01-19T22:28:38.027Z,51.76
2024-01-19T22:31:07.517Z,51.29
2024-01-19T22:33:38.175Z,51.61
2024-01-19T22:36:15.066Z,55.59
2024-01-19T22:38:46.434Z,56.54
2024-01-19T22:41:17.377Z,55.93
2024-01-19T22:43:45.159Z,57.63
2024-01-19T22:46:12.891Z,55.91
2024-01-19T22:48:40.439Z,56.15
2024-01-19T22:51:08.367Z,54.67
2024-01-19T22:53:36.017Z,55.61
2024-01-19T22:56:11.129Z,55.18
2024-01-19T22:58:39.524Z,56.03
2024-01-19T23:01:10.512Z,56.50
2024-01-19T23:03:38.289Z,57.46
2024-01-19T23:06:06.246Z,56.66
2024-01-19T23:08:33.890Z,56.31
2024-01-19T23:11:01.455Z,56.23
2024-01-19T23:13:28.976Z,55.92
2024-01-19T23:15:56.518Z,55.31
2024-01-19T23:18:24.486Z,54.78
2024-01-19T23:20:52.348Z,55.31
2024-01-19T23:23:20.562Z,55.24
2024-01-19T23:25:48.059Z,55.20
2024-01-19T23:28:15.804Z,55.71
2024-01-19T23:30:43.297Z,55.97
2024-01-19T23:33:11.300Z,56.35
2024-01-19T23:35:38.875Z,56.78
2024-01-19T23:38:06.928Z,56.44
2024-01-19T23:40:34.373Z,55.34
2024-01-19T23:43:01.952Z,57.22
2024-01-19T23:45:29.456Z,55.38
2024-01-19T23:47:58.038Z,56.42
2024-01-19T23:50:26.433Z,55.87
2024-01-19T23:52:53.817Z,55.04
2024-01-19T23:55:21.417Z,55.80
2024-01-19T23:57:48.866Z,55.28
